sensor_id;sensor_type;location;lat;lon;timestamp;pressure;altitude;pressure_sealevel;temperature;humidity
56038;BME280;41907;47.848;9.000;2022-12-24T00:00:28;95431.34;;;9.73;100.00
56038;BME280;41907;47.848;9.000;2022-12-24T00:02:54;95424.44;;;9.72;100.00
56038;BME280;41907;47.848;9.000;2022-12-24T00:05:20;95417.41;;;9.67;100.00
56038;BME280;41907;47.848;9.000;2022-12-24T00:07:45;95422.72;;;9.67;100.00
56038;BME280;41907;47.848;9.000;2022-12-24T00:10:11;95434.66;;;9.70;100.00
56038;BME280;41907;47.848;9.000;2022-12-24T00:12:36;95425.38;;;9.67;100.00
56038;BME280;41907;47.848;9.000;2022-12-24T00:15:04;95454.19;;;9.65;100.00
56038;BME280;41907;47.848;9.000;2022-12-24T00:17:30;95466.13;;;9.68;100.00
56038;BME280;41907;47.848;9.000;2022-12-24T00:19:55;95457.94;;;9.64;100.00
56038;BME280;41907;47.848;9.000;2022-12-24T00:22:20;95461.72;;;9.72;100.00
56038;BME280;41907;47.848;9.000;2022-12-24T00:24:46;95460.81;;;9.77;100.00
56038;BME280;41907;47.848;9.000;2022-12-24T00:27:11;95454.88;;;9.80;100.00
56038;BME280;41907;47.848;9.000;2022-12-24T00:29:36;95462.38;;;9.78;100.00
56038;BME280;41907;47.848;9.000;2022-12-24T00:32:02;95468.50;;;9.78;100.00
56038;BME280;41907;47.848;9.000;2022-12-24T00:34:32;95465.66;;;9.75;100.00
56038;BME280;41907;47.848;9.000;2022-12-24T00:36:57;95466.44;;;9.75;100.00
56038;BME280;41907;47.848;9.000;2022-12-24T00:39:23;95474.44;;;9.75;100.00
56038;BME280;41907;47.848;9.000;2022-12-24T00:41:48;95474.75;;;9.74;100.00
56038;BME280;41907;47.848;9.000;2022-12-24T00:44:13;95463.78;;;9.75;100.00
56038;BME280;41907;47.848;9.000;2022-12-24T00:46:40;95477.56;;;9.68;100.00
56038;BME280;41907;47.848;9.000;2022-12-24T00:49:06;95470.00;;;9.62;100.00
56038;BME280;41907;47.848;9.000;2022-12-24T00:51:33;95473.75;;;9.61;100.00
56038;BME280;41907;47.848;9.000;2022-12-24T00:53:59;95479.09;;;9.61;100.00
56038;BME280;41907;47.848;9.000;2022-12-24T00:56:25;95478.72;;;9.54;100.00
56038;BME280;41907;47.848;9.000;2022-12-24T00:58:51;95487.81;;;9.53;100.00
56038;BME280;41907;47.848;9.000;2022-12-24T01:01:17;95496.53;;;9.45;100.00
56038;BME280;41907;47.848;9.000;2022-12-24T01:03:42;95509.38;;;9.43;100.00
56038;BME280;41907;47.848;9.000;2022-12-24T01:06:10;95511.25;;;9.42;100.00
56038;BME280;41907;47.848;9.000;2022-12-24T01:08:36;95525.22;;;9.48;100.00
56038;BME280;41907;47.848;9.000;2022-12-24T01:11:03;95534.88;;;9.44;100.00
56038;BME280;41907;47.848;9.000;2022-12-24T01:13:29;95540.88;;;9.49;100.00
56038;BME280;41907;47.848;9.000;2022-12-24T01:15:55;95540.88;;;9.49;100.00
56038;BME280;41907;47.848;9.000;2022-12-24T01:18:20;95538.66;;;9.43;100.00
56038;BME280;41907;47.848;9.000;2022-12-24T01:20:57;95549.47;;;9.46;100.00
56038;BME280;41907;47.848;9.000;2022-12-24T01:23:23;95553.09;;;9.50;100.00
56038;BME280;41907;47.848;9.000;2022-12-24T01:25:48;95559.22;;;9.51;100.00
56038;BME280;41907;47.848;9.000;2022-12-24T01:28:14;95550.59;;;9.54;100.00
56038;BME280;41907;47.848;9.000;2022-12-24T01:30:40;95544.19;;;9.55;100.00
56038;BME280;41907;47.848;9.000;2022-12-24T01:33:05;95549.41;;;9.60;100.00
56038;BME280;41907;47.848;9.000;2022-12-24T01:35:30;95554.72;;;9.60;100.00
56038;BME280;41907;47.848;9.000;2022-12-24T01:37:56;95550.31;;;9.55;100.00
56038;BME280;41907;47.848;9.000;2022-12-24T01:40:24;95546.06;;;9.54;100.00
56038;BME280;41907;47.848;9.000;2022-12-24T01:43:16;95544.56;;;9.62;100.00
56038;BME280;41907;47.848;9.000;2022-12-24T01:45:51;95555.06;;;9.67;100.00
56038;BME280;41907;47.848;9.000;2022-12-24T01:51:07;95563.06;;;9.67;100.00
56038;BME280;41907;47.848;9.000;2022-12-24T01:53:38;95566.66;;;9.62;100.00
56038;BME280;41907;47.848;9.000;2022-12-24T01:56:07;95566.16;;;9.60;100.00
56038;BME280;41907;47.848;9.000;2022-12-24T01:58:34;95568.53;;;9.62;100.00
56038;BME280;41907;47.848;9.000;2022-12-24T02:01:01;95576.34;;;9.58;100.00
56038;BME280;41907;47.848;9.000;2022-12-24T02:03:26;95573.84;;;9.62;100.00
56038;BME280;41907;47.848;9.000;2022-12-24T02:05:53;95567.25;;;9.59;100.00
56038;BME280;41907;47.848;9.000;2022-12-24T02:08:21;95571.00;;;9.58;100.00
56038;BME280;41907;47.848;9.000;2022-12-24T02:10:46;95569.38;;;9.49;100.00
56038;BME280;41907;47.848;9.000;2022-12-24T02:13:13;95566.41;;;9.50;100.00
56038;BME280;41907;47.848;9.000;2022-12-24T02:18:32;95575.50;;;9.49;100.00
56038;BME280;41907;47.848;9.000;2022-12-24T02:32:20;95586.19;;;9.58;100.00
56038;BME280;41907;47.848;9.000;2022-12-24T02:34:52;95589.84;;;9.62;100.00
56038;BME280;41907;47.848;9.000;2022-12-24T02:40:40;95589.41;;;9.68;100.00
56038;BME280;41907;47.848;9.000;2022-12-24T02:43:11;95578.56;;;9.65;100.00
56038;BME280;41907;47.848;9.000;2022-12-24T02:45:39;95580.72;;;9.63;100.00
56038;BME280;41907;47.848;9.000;2022-12-24T02:48:11;95589.16;;;9.56;100.00
56038;BME280;41907;47.848;9.000;2022-12-24T02:50:39;95591.03;;;9.56;100.00
56038;BME280;41907;47.848;9.000;2022-12-24T02:53:05;95587.41;;;9.52;100.00
56038;BME280;41907;47.848;9.000;2022-12-24T02:58:50;95594.97;;;9.58;100.00
56038;BME280;41907;47.848;9.000;2022-12-24T03:06:57;95608.88;;;9.55;100.00
56038;BME280;41907;47.848;9.000;2022-12-24T03:12:29;95609.38;;;9.57;100.00
56038;BME280;41907;47.848;9.000;2022-12-24T03:14:57;95603.25;;;9.57;100.00
56038;BME280;41907;47.848;9.000;2022-12-24T03:17:22;95600.09;;;9.55;100.00
56038;BME280;41907;47.848;9.000;2022-12-24T03:19:47;95596.50;;;9.51;100.00
56038;BME280;41907;47.848;9.000;2022-12-24T03:22:15;95588.66;;;9.54;100.00
56038;BME280;41907;47.848;9.000;2022-12-24T03:24:42;95603.69;;;9.50;100.00
56038;BME280;41907;47.848;9.000;2022-12-24T03:27:08;95622.81;;;9.52;100.00
56038;BME280;41907;47.848;9.000;2022-12-24T03:29:38;95615.44;;;9.49;100.00
56038;BME280;41907;47.848;9.000;2022-12-24T03:32:03;95620.03;;;9.57;100.00
56038;BME280;41907;47.848;9.000;2022-12-24T03:34:29;95625.63;;;9.56;100.00
56038;BME280;41907;47.848;9.000;2022-12-24T03:36:55;95626.31;;;9.61;100.00
56038;BME280;41907;47.848;9.000;2022-12-24T03:39:21;95629.88;;;9.57;100.00
56038;BME280;41907;47.848;9.000;2022-12-24T03:41:46;95634.41;;;9.56;100.00
56038;BME280;41907;47.848;9.000;2022-12-24T03:44:12;95643.50;;;9.55;100.00
56038;BME280;41907;47.848;9.000;2022-12-24T03:46:37;95642.91;;;9.58;100.00
56038;BME280;41907;47.848;9.000;2022-12-24T03:49:02;95642.91;;;9.58;100.00
56038;BME280;41907;47.848;9.000;2022-12-24T03:51:28;95645.84;;;9.57;100.00
56038;BME280;41907;47.848;9.000;2022-12-24T03:53:55;95645.38;;;9.55;100.00
56038;BME280;41907;47.848;9.000;2022-12-24T03:56:21;95641.81;;;9.59;100.00
56038;BME280;41907;47.848;9.000;2022-12-24T03:58:47;95635.00;;;9.53;100.00
56038;BME280;41907;47.848;9.000;2022-12-24T04:01:13;95651.66;;;9.59;100.00
56038;BME280;41907;47.848;9.000;2022-12-24T04:03:38;95662.97;;;9.64;100.00
56038;BME280;41907;47.848;9.000;2022-12-24T04:06:10;95670.50;;;9.62;100.00
56038;BME280;41907;47.848;9.000;2022-12-24T04:08:36;95666.13;;;9.66;100.00
56038;BME280;41907;47.848;9.000;2022-12-24T04:11:07;95667.50;;;9.64;100.00
56038;BME280;41907;47.848;9.000;2022-12-24T04:13:33;95663.75;;;9.65;100.00
56038;BME280;41907;47.848;9.000;2022-12-24T04:16:07;95662.50;;;9.62;100.00
56038;BME280;41907;47.848;9.000;2022-12-24T04:18:34;95645.56;;;9.58;100.00
56038;BME280;41907;47.848;9.000;2022-12-24T04:20:59;95643.97;;;9.57;100.00
56038;BME280;41907;47.848;9.000;2022-12-24T04:23:25;95661.09;;;9.65;100.00
56038;BME280;41907;47.848;9.000;2022-12-24T04:25:51;95666.63;;;9.68;100.00
56038;BME280;41907;47.848;9.000;2022-12-24T04:28:16;95666.44;;;9.65;100.00
56038;BME280;41907;47.848;9.000;2022-12-24T04:30:43;95681.91;;;9.63;100.00
56038;BME280;41907;47.848;9.000;2022-12-24T04:33:08;95687.72;;;9.65;100.00
56038;BME280;41907;47.848;9.000;2022-12-24T04:35:38;95684.41;;;9.59;100.00
56038;BME280;41907;47.848;9.000;2022-12-24T04:38:06;95681.91;;;9.63;100.00
56038;BME280;41907;47.848;9.000;2022-12-24T04:40:32;95681.63;;;9.64;100.00
56038;BME280;41907;47.848;9.000;2022-12-24T04:42:59;95681.44;;;9.61;100.00
56038;BME280;41907;47.848;9.000;2022-12-24T04:45:24;95681.75;;;9.59;100.00
56038;BME280;41907;47.848;9.000;2022-12-24T04:47:49;95687.66;;;9.56;100.00
56038;BME280;41907;47.848;9.000;2022-12-24T04:50:15;95674.25;;;9.61;100.00
56038;BME280;41907;47.848;9.000;2022-12-24T04:52:40;95674.84;;;9.58;100.00
56038;BME280;41907;47.848;9.000;2022-12-24T04:55:06;95682.28;;;9.48;100.00
56038;BME280;41907;47.848;9.000;2022-12-24T04:57:32;95687.19;;;9.54;100.00
56038;BME280;41907;47.848;9.000;2022-12-24T04:59:58;95687.66;;;9.56;100.00
56038;BME280;41907;47.848;9.000;2022-12-24T05:02:24;95698.63;;;9.55;100.00
56038;BME280;41907;47.848;9.000;2022-12-24T05:04:49;95698.84;;;9.45;100.00
56038;BME280;41907;47.848;9.000;2022-12-24T05:07:15;95694.72;;;9.39;100.00
56038;BME280;41907;47.848;9.000;2022-12-24T05:09:40;95703.22;;;9.41;100.00
56038;BME280;41907;47.848;9.000;2022-12-24T05:12:06;95693.53;;;9.45;100.00
56038;BME280;41907;47.848;9.000;2022-12-24T05:14:31;95697.75;;;9.46;100.00
56038;BME280;41907;47.848;9.000;2022-12-24T05:16:57;95690.84;;;9.45;100.00
56038;BME280;41907;47.848;9.000;2022-12-24T05:19:23;95692.72;;;9.44;100.00
56038;BME280;41907;47.848;9.000;2022-12-24T05:21:49;95703.44;;;9.30;100.00
56038;BME280;41907;47.848;9.000;2022-12-24T05:24:34;95703.06;;;9.23;100.00
56038;BME280;41907;47.848;9.000;2022-12-24T05:27:18;95706.09;;;9.17;100.00
56038;BME280;41907;47.848;9.000;2022-12-24T05:29:44;95702.84;;;9.20;100.00
56038;BME280;41907;47.848;9.000;2022-12-24T05:32:09;95706.31;;;9.20;100.00
56038;BME280;41907;47.848;9.000;2022-12-24T05:34:34;95695.38;;;9.22;100.00
56038;BME280;41907;47.848;9.000;2022-12-24T05:37:00;95695.53;;;9.25;100.00
56038;BME280;41907;47.848;9.000;2022-12-24T05:39:25;95709.03;;;9.29;100.00
56038;BME280;41907;47.848;9.000;2022-12-24T05:41:51;95704.31;;;9.26;100.00
56038;BME280;41907;47.848;9.000;2022-12-24T05:44:16;95707.88;;;9.21;100.00
56038;BME280;41907;47.848;9.000;2022-12-24T05:46:42;95712.72;;;9.19;100.00
56038;BME280;41907;47.848;9.000;2022-12-24T05:49:08;95722.16;;;9.25;100.00
56038;BME280;41907;47.848;9.000;2022-12-24T05:51:34;95724.03;;;9.25;100.00
56038;BME280;41907;47.848;9.000;2022-12-24T05:53:59;95722.28;;;9.20;100.00
56038;BME280;41907;47.848;9.000;2022-12-24T05:56:24;95745.13;;;9.21;100.00
56038;BME280;41907;47.848;9.000;2022-12-24T05:58:51;95734.78;;;9.20;100.00
56038;BME280;41907;47.848;9.000;2022-12-24T06:01:18;95739.91;;;9.16;100.00
56038;BME280;41907;47.848;9.000;2022-12-24T06:03:44;95742.97;;;9.23;100.00
56038;BME280;41907;47.848;9.000;2022-12-24T06:06:15;95745.72;;;9.18;100.00
56038;BME280;41907;47.848;9.000;2022-12-24T06:08:43;95729.88;;;9.13;100.00
56038;BME280;41907;47.848;9.000;2022-12-24T06:11:11;95729.88;;;9.13;100.00
56038;BME280;41907;47.848;9.000;2022-12-24T06:13:37;95737.25;;;9.16;100.00
56038;BME280;41907;47.848;9.000;2022-12-24T06:16:04;95742.88;;;9.15;100.00
56038;BME280;41907;47.848;9.000;2022-12-24T06:18:31;95741.09;;;9.10;100.00
56038;BME280;41907;47.848;9.000;2022-12-24T06:20:58;95741.50;;;9.17;100.00
56038;BME280;41907;47.848;9.000;2022-12-24T06:23:24;95743.34;;;9.17;100.00
56038;BME280;41907;47.848;9.000;2022-12-24T06:25:50;95752.41;;;9.16;100.00
56038;BME280;41907;47.848;9.000;2022-12-24T06:28:16;95750.09;;;9.14;100.00
56038;BME280;41907;47.848;9.000;2022-12-24T06:30:46;95758.53;;;9.16;100.00
56038;BME280;41907;47.848;9.000;2022-12-24T06:33:12;95758.53;;;9.16;100.00
56038;BME280;41907;47.848;9.000;2022-12-24T06:35:38;95765.94;;;9.19;100.00
56038;BME280;41907;47.848;9.000;2022-12-24T06:38:03;95763.28;;;9.19;100.00
56038;BME280;41907;47.848;9.000;2022-12-24T06:40:29;95761.19;;;9.16;100.00
56038;BME280;41907;47.848;9.000;2022-12-24T06:42:54;95752.84;;;9.09;100.00
56038;BME280;41907;47.848;9.000;2022-12-24T06:45:20;95750.28;;;9.04;100.00
56038;BME280;41907;47.848;9.000;2022-12-24T06:47:45;95752.44;;;9.02;100.00
56038;BME280;41907;47.848;9.000;2022-12-24T06:50:11;95760.63;;;9.06;100.00
56038;BME280;41907;47.848;9.000;2022-12-24T06:52:36;95760.03;;;9.09;100.00
56038;BME280;41907;47.848;9.000;2022-12-24T06:55:02;95762.19;;;9.07;100.00
56038;BME280;41907;47.848;9.000;2022-12-24T06:57:28;95765.47;;;9.04;100.00
56038;BME280;41907;47.848;9.000;2022-12-24T06:59:53;95763.88;;;9.03;100.00
56038;BME280;41907;47.848;9.000;2022-12-24T07:02:19;95773.31;;;9.09;100.00
56038;BME280;41907;47.848;9.000;2022-12-24T07:04:46;95760.81;;;9.09;100.00
56038;BME280;41907;47.848;9.000;2022-12-24T07:07:11;95770.78;;;9.04;100.00
56038;BME280;41907;47.848;9.000;2022-12-24T07:09:36;95767.72;;;9.10;100.00
56038;BME280;41907;47.848;9.000;2022-12-24T07:12:02;95766.13;;;9.09;100.00
56038;BME280;41907;47.848;9.000;2022-12-24T07:14:27;95761.00;;;9.13;100.00
56038;BME280;41907;47.848;9.000;2022-12-24T07:16:53;95761.81;;;9.13;100.00
56038;BME280;41907;47.848;9.000;2022-12-24T07:19:18;95780.91;;;9.15;100.00
56038;BME280;41907;47.848;9.000;2022-12-24T07:21:44;95782.59;;;9.11;100.00
56038;BME280;41907;47.848;9.000;2022-12-24T07:24:09;95771.25;;;8.92;100.00
56038;BME280;41907;47.848;9.000;2022-12-24T07:26:34;95782.91;;;8.96;100.00
56038;BME280;41907;47.848;9.000;2022-12-24T07:29:00;95789.78;;;8.97;100.00
56038;BME280;41907;47.848;9.000;2022-12-24T07:31:25;95791.75;;;8.91;100.00
56038;BME280;41907;47.848;9.000;2022-12-24T07:33:51;95802.09;;;8.93;100.00
56038;BME280;41907;47.848;9.000;2022-12-24T07:36:19;95813.81;;;8.92;100.00
56038;BME280;41907;47.848;9.000;2022-12-24T07:38:44;95811.66;;;8.94;100.00
56038;BME280;41907;47.848;9.000;2022-12-24T07:41:10;95816.47;;;8.92;100.00
56038;BME280;41907;47.848;9.000;2022-12-24T07:43:35;95819.63;;;8.94;100.00
56038;BME280;41907;47.848;9.000;2022-12-24T07:46:01;95828.41;;;8.94;100.00
56038;BME280;41907;47.848;9.000;2022-12-24T07:48:29;95824.16;;;8.93;100.00
56038;BME280;41907;47.848;9.000;2022-12-24T07:50:55;95816.28;;;8.88;100.00
56038;BME280;41907;47.848;9.000;2022-12-24T07:53:21;95818.34;;;8.91;100.00
56038;BME280;41907;47.848;9.000;2022-12-24T07:55:46;95818.75;;;8.99;100.00
56038;BME280;41907;47.848;9.000;2022-12-24T07:58:12;95804.25;;;8.91;100.00
56038;BME280;41907;47.848;9.000;2022-12-24T08:00:37;95795.97;;;8.79;100.00
56038;BME280;41907;47.848;9.000;2022-12-24T08:03:03;95805.53;;;8.80;100.00
56038;BME280;41907;47.848;9.000;2022-12-24T08:05:34;95810.44;;;8.73;100.00
56038;BME280;41907;47.848;9.000;2022-12-24T08:08:00;95810.34;;;8.78;100.00
56038;BME280;41907;47.848;9.000;2022-12-24T08:10:25;95815.88;;;8.81;100.00
56038;BME280;41907;47.848;9.000;2022-12-24T08:12:51;95825.31;;;8.87;100.00
56038;BME280;41907;47.848;9.000;2022-12-24T08:15:17;95836.47;;;8.89;100.00
56038;BME280;41907;47.848;9.000;2022-12-24T08:17:42;95840.53;;;8.87;100.00
56038;BME280;41907;47.848;9.000;2022-12-24T08:20:09;95831.34;;;8.93;100.00
56038;BME280;41907;47.848;9.000;2022-12-24T08:22:34;95839.63;;;8.91;100.00
56038;BME280;41907;47.848;9.000;2022-12-24T08:24:59;95839.84;;;8.95;100.00
56038;BME280;41907;47.848;9.000;2022-12-24T08:27:25;95863.00;;;8.94;100.00
56038;BME280;41907;47.848;9.000;2022-12-24T08:29:50;95850.66;;;8.99;100.00
56038;BME280;41907;47.848;9.000;2022-12-24T08:32:16;95851.97;;;9.01;100.00
56038;BME280;41907;47.848;9.000;2022-12-24T08:34:42;95868.78;;;8.96;100.00
56038;BME280;41907;47.848;9.000;2022-12-24T08:37:07;95865.66;;;8.94;100.00
56038;BME280;41907;47.848;9.000;2022-12-24T08:39:33;95866.81;;;8.88;100.00
56038;BME280;41907;47.848;9.000;2022-12-24T08:41:58;95870.25;;;8.75;100.00
56038;BME280;41907;47.848;9.000;2022-12-24T08:44:24;95883.69;;;8.65;100.00
56038;BME280;41907;47.848;9.000;2022-12-24T08:46:49;95882.69;;;8.61;100.00
56038;BME280;41907;47.848;9.000;2022-12-24T08:49:14;95883.47;;;8.62;100.00
56038;BME280;41907;47.848;9.000;2022-12-24T08:51:40;95877.97;;;8.58;100.00
56038;BME280;41907;47.848;9.000;2022-12-24T08:54:06;95884.09;;;8.58;100.00
56038;BME280;41907;47.848;9.000;2022-12-24T08:56:31;95885.56;;;8.65;100.00
56038;BME280;41907;47.848;9.000;2022-12-24T08:58:58;95884.28;;;8.62;100.00
56038;BME280;41907;47.848;9.000;2022-12-24T09:01:24;95903.16;;;8.61;100.00
56038;BME280;41907;47.848;9.000;2022-12-24T09:03:49;95914.72;;;8.70;100.00
56038;BME280;41907;47.848;9.000;2022-12-24T09:06:16;95907.97;;;8.77;100.00
56038;BME280;41907;47.848;9.000;2022-12-24T09:08:41;95909.41;;;8.70;100.00
56038;BME280;41907;47.848;9.000;2022-12-24T09:11:12;95913.56;;;8.76;100.00
56038;BME280;41907;47.848;9.000;2022-12-24T09:13:38;95910.19;;;8.70;100.00
56038;BME280;41907;47.848;9.000;2022-12-24T09:16:08;95906.41;;;8.76;100.00
56038;BME280;41907;47.848;9.000;2022-12-24T09:18:33;95889.03;;;8.79;100.00
56038;BME280;41907;47.848;9.000;2022-12-24T09:21:05;95905.44;;;8.86;100.00
56038;BME280;41907;47.848;9.000;2022-12-24T09:23:33;95913.41;;;8.86;100.00
56038;BME280;41907;47.848;9.000;2022-12-24T09:26:08;95929.38;;;9.00;100.00
56038;BME280;41907;47.848;9.000;2022-12-24T09:28:34;95932.16;;;8.94;100.00
56038;BME280;41907;47.848;9.000;2022-12-24T09:31:01;95929.28;;;8.91;100.00
56038;BME280;41907;47.848;9.000;2022-12-24T09:33:29;95936.00;;;9.02;100.00
56038;BME280;41907;47.848;9.000;2022-12-24T09:35:54;95928.59;;;8.85;100.00
56038;BME280;41907;47.848;9.000;2022-12-24T09:38:20;95925.25;;;8.93;100.00
56038;BME280;41907;47.848;9.000;2022-12-24T09:40:46;95918.63;;;8.91;100.00
56038;BME280;41907;47.848;9.000;2022-12-24T09:43:16;95921.22;;;8.96;100.00
56038;BME280;41907;47.848;9.000;2022-12-24T09:46:20;95923.03;;;9.14;100.00
56038;BME280;41907;47.848;9.000;2022-12-24T09:48:51;95926.06;;;9.08;100.00
56038;BME280;41907;47.848;9.000;2022-12-24T09:51:35;95932.09;;;9.13;100.00
56038;BME280;41907;47.848;9.000;2022-12-24T09:54:30;95935.34;;;9.10;100.00
56038;BME280;41907;47.848;9.000;2022-12-24T09:57:00;95933.88;;;9.18;100.00
56038;BME280;41907;47.848;9.000;2022-12-24T09:59:39;95930.31;;;9.09;100.00
56038;BME280;41907;47.848;9.000;2022-12-24T10:02:14;95933.13;;;8.99;100.00
56038;BME280;41907;47.848;9.000;2022-12-24T10:04:42;95932.94;;;8.95;100.00
56038;BME280;41907;47.848;9.000;2022-12-24T10:15:47;95954.38;;;8.85;100.00
56038;BME280;41907;47.848;9.000;2022-12-24T10:18:24;95950.78;;;8.94;100.00
56038;BME280;41907;47.848;9.000;2022-12-24T10:21:14;95966.13;;;8.98;100.00
56038;BME280;41907;47.848;9.000;2022-12-24T10:24:05;95963.00;;;8.95;100.00
56038;BME280;41907;47.848;9.000;2022-12-24T10:26:35;95961.72;;;9.07;100.00
56038;BME280;41907;47.848;9.000;2022-12-24T10:29:16;95956.41;;;9.07;100.00
56038;BME280;41907;47.848;9.000;2022-12-24T10:31:55;95945.56;;;9.03;100.00
56038;BME280;41907;47.848;9.000;2022-12-24T10:34:23;95948.06;;;9.13;100.00
56038;BME280;41907;47.848;9.000;2022-12-24T10:36:52;95939.69;;;9.20;100.00
56038;BME280;41907;47.848;9.000;2022-12-24T10:39:23;95942.75;;;9.13;100.00
56038;BME280;41907;47.848;9.000;2022-12-24T10:41:52;95929.91;;;9.15;100.00
56038;BME280;41907;47.848;9.000;2022-12-24T10:44:27;95932.78;;;9.05;100.00
56038;BME280;41907;47.848;9.000;2022-12-24T10:46:57;95933.88;;;9.18;100.00
56038;BME280;41907;47.848;9.000;2022-12-24T10:49:38;95942.25;;;9.25;100.00
56038;BME280;41907;47.848;9.000;2022-12-24T10:52:13;95944.63;;;9.26;100.00
56038;BME280;41907;47.848;9.000;2022-12-24T10:55:20;95940.78;;;9.19;100.00
56038;BME280;41907;47.848;9.000;2022-12-24T10:58:03;95943.94;;;9.21;100.00
56038;BME280;41907;47.848;9.000;2022-12-24T11:00:30;95948.47;;;9.20;100.00
56038;BME280;41907;47.848;9.000;2022-12-24T11:05:39;95941.72;;;8.95;100.00
56038;BME280;41907;47.848;9.000;2022-12-24T11:10:40;95941.94;;;9.13;100.00
56038;BME280;41907;47.848;9.000;2022-12-24T11:13:23;95942.44;;;9.15;100.00
56038;BME280;41907;47.848;9.000;2022-12-24T11:16:03;95943.88;;;9.07;100.00
56038;BME280;41907;47.848;9.000;2022-12-24T11:18:31;95945.56;;;9.03;100.00
56038;BME280;41907;47.848;9.000;2022-12-24T11:20:57;95941.72;;;9.09;100.00
56038;BME280;41907;47.848;9.000;2022-12-24T11:23:26;95946.19;;;9.14;100.00
56038;BME280;41907;47.848;9.000;2022-12-24T11:25:54;95952.88;;;9.11;100.00
56038;BME280;41907;47.848;9.000;2022-12-24T11:28:31;95951.41;;;9.19;100.00
56038;BME280;41907;47.848;9.000;2022-12-24T11:31:05;95952.25;;;9.33;100.00
56038;BME280;41907;47.848;9.000;2022-12-24T11:33:31;95957.34;;;9.29;100.00
56038;BME280;41907;47.848;9.000;2022-12-24T11:36:01;95956.72;;;9.19;100.00
56038;BME280;41907;47.848;9.000;2022-12-24T11:38:32;95952.38;;;9.09;100.00
56038;BME280;41907;47.848;9.000;2022-12-24T11:41:03;95955.25;;;9.13;100.00
56038;BME280;41907;47.848;9.000;2022-12-24T11:43:42;95944.59;;;9.13;100.00
56038;BME280;41907;47.848;9.000;2022-12-24T11:46:14;95929.91;;;9.15;100.00
56038;BME280;41907;47.848;9.000;2022-12-24T11:48:40;95936.13;;;9.11;100.00
56038;BME280;41907;47.848;9.000;2022-12-24T11:51:21;95924.13;;;9.13;100.00
56038;BME280;41907;47.848;9.000;2022-12-24T11:53:52;95932.38;;;9.25;100.00
56038;BME280;41907;47.848;9.000;2022-12-24T11:56:35;95941.16;;;9.26;100.00
56038;BME280;41907;47.848;9.000;2022-12-24T12:04:31;95939.22;;;9.45;100.00
56038;BME280;41907;47.848;9.000;2022-12-24T12:09:30;95942.38;;;9.47;100.00
56038;BME280;41907;47.848;9.000;2022-12-24T12:12:01;95942.38;;;9.47;100.00
56038;BME280;41907;47.848;9.000;2022-12-24T12:15:11;95929.66;;;9.44;100.00
56038;BME280;41907;47.848;9.000;2022-12-24T12:17:43;95917.63;;;9.47;100.00
56038;BME280;41907;47.848;9.000;2022-12-24T12:20:25;95927.09;;;9.39;100.00
56038;BME280;41907;47.848;9.000;2022-12-24T12:23:12;95926.81;;;9.41;100.00
56038;BME280;41907;47.848;9.000;2022-12-24T12:28:42;95935.97;;;9.48;100.00
56038;BME280;41907;47.848;9.000;2022-12-24T12:31:29;95939.13;;;9.50;100.00
56038;BME280;41907;47.848;9.000;2022-12-24T12:36:41;95921.59;;;9.49;100.00
56038;BME280;41907;47.848;9.000;2022-12-24T12:39:09;95921.38;;;9.46;100.00
56038;BME280;41907;47.848;9.000;2022-12-24T12:41:48;95923.97;;;9.51;100.00
56038;BME280;41907;47.848;9.000;2022-12-24T12:49:41;95934.97;;;9.44;100.00
56038;BME280;41907;47.848;9.000;2022-12-24T12:52:20;95929.19;;;9.42;100.00
56038;BME280;41907;47.848;9.000;2022-12-24T12:55:01;95935.88;;;9.40;100.00
56038;BME280;41907;47.848;9.000;2022-12-24T12:57:32;95927.88;;;9.40;100.00
56038;BME280;41907;47.848;9.000;2022-12-24T13:00:11;95923.53;;;9.44;100.00
56038;BME280;41907;47.848;9.000;2022-12-24T13:13:58;95928.50;;;9.50;100.00
56038;BME280;41907;47.848;9.000;2022-12-24T13:21:44;95919.03;;;9.58;100.00
56038;BME280;41907;47.848;9.000;2022-12-24T13:24:25;95922.47;;;9.58;100.00
56038;BME280;41907;47.848;9.000;2022-12-24T13:27:15;95912.81;;;9.49;100.00
56038;BME280;41907;47.848;9.000;2022-12-24T13:29:57;95914.69;;;9.48;100.00
56038;BME280;41907;47.848;9.000;2022-12-24T13:34:50;95923.66;;;9.52;100.00
56038;BME280;41907;47.848;9.000;2022-12-24T13:48:15;95941.09;;;9.45;100.00
56038;BME280;41907;47.848;9.000;2022-12-24T13:50:49;95937.75;;;9.39;100.00
56038;BME280;41907;47.848;9.000;2022-12-24T13:53:30;95935.97;;;9.48;100.00
56038;BME280;41907;47.848;9.000;2022-12-24T13:58:44;95922.69;;;9.62;100.00
56038;BME280;41907;47.848;9.000;2022-12-24T14:01:15;95921.91;;;9.61;100.00
56038;BME280;41907;47.848;9.000;2022-12-24T14:03:52;95920.41;;;9.55;100.00
56038;BME280;41907;47.848;9.000;2022-12-24T14:06:39;95928.59;;;9.59;100.00
56038;BME280;41907;47.848;9.000;2022-12-24T14:09:09;95907.50;;;9.62;100.00
56038;BME280;41907;47.848;9.000;2022-12-24T14:14:30;95904.13;;;9.57;100.00
56038;BME280;41907;47.848;9.000;2022-12-24T14:16:58;95906.72;;;9.62;100.00
56038;BME280;41907;47.848;9.000;2022-12-24T14:19:26;95904.81;;;9.49;100.00
56038;BME280;41907;47.848;9.000;2022-12-24T14:24:47;95916.16;;;9.54;100.00
56038;BME280;41907;47.848;9.000;2022-12-24T14:27:18;95919.13;;;9.53;100.00
56038;BME280;41907;47.848;9.000;2022-12-24T14:32:40;95923.97;;;9.51;100.00
56038;BME280;41907;47.848;9.000;2022-12-24T14:35:40;95931.34;;;9.54;100.00
56038;BME280;41907;47.848;9.000;2022-12-24T14:38:15;95933.91;;;9.45;100.00
56038;BME280;41907;47.848;9.000;2022-12-24T14:40:56;95936.06;;;9.29;100.00
56038;BME280;41907;47.848;9.000;2022-12-24T14:46:22;95932.91;;;9.41;100.00
56038;BME280;41907;47.848;9.000;2022-12-24T14:48:54;95939.03;;;9.42;100.00
56038;BME280;41907;47.848;9.000;2022-12-24T14:54:34;95929.16;;;9.28;100.00
56038;BME280;41907;47.848;9.000;2022-12-24T14:59:54;95933.97;;;9.26;100.00
56038;BME280;41907;47.848;9.000;2022-12-24T15:02:43;95946.19;;;9.27;100.00
56038;BME280;41907;47.848;9.000;2022-12-24T15:05:23;95948.47;;;9.20;100.00